Michigan City, IN

7:06 PM CDT on September 24, 2016 (GMT -0500)
INDOT | | Change Station

Elev 659 ft 41.66 °N, 86.90 °W | Updated 46 minutes ago

Clear
Clear
75.0 °F
Feels Like 76 °F
N
7.0
Wind Variable Wind from ENE
Gusts 8.0 mph

Today
High -- | Low -- °F
--% Chance of Precip.
Yesterday
High -- | Low -- °F
Precip. -- in
Pressure 30.12 in
Visibility 10.0 miles
Clouds Clear
Heat Index 76 °F
Dew Point 65.0 °F
Humidity 73%
Rainfall in
Snow Depth Not available.
6:37 AM 6:40 PM
Waning Crescent, 33% visible
METAR KMGC 242355Z AUTO 00000KT 10SM CLR 21/17 A3012 RMK AO2
Pressure 30.12 in
Visibility 10.0 miles
Clouds Clear
Heat Index 76 °F
Dew Point 65.0 °F
Humidity 73%
Rainfall in
Snow Depth Not available.
6:37 AM 6:40 PM
Waning Crescent, 33% visible
METAR KMGC 242355Z AUTO 00000KT 10SM CLR 21/17 A3012 RMK AO2

10-Day Weather Forecast

Almanac

Astronomy

Sep. 24, 2016 Rise Set
Actual Time
Civil Twilight
Nautical Twilight
Astronomical Twilight
Moon
Length of Visible Light
Length of Day
Tomorrow will be .
, % of the Moon is Illuminated

Today's Extremes

State Highs State Lows

Community

WunderPhotos

Upload Photos

1,941,464 photos uploaded!

WunderBlog® & News

Nearby

Air Quality

  Air Quality AQ Index Pollutant
Not available.

Snow Depth

Station Depth Elevation

Earthquake Activity

City Distance Mag. Time & Date
Minimum magnitude displayed is 2.5.

Coastal Water Temperatures

Place Temperature

Stations

Nearby Weather Stations

Station Location Temp. Windchill Dew Point Humidity Wind Precip. Elev Updated Type
                   

Watches & Warnings

There are currently no watches in effect.